sensor_id;sensor_type;location;lat;lon;timestamp;temperature;humidity
12111;DHT22;6119;52.372;8.990;2023-04-28T00:00:22;10.00;92.30
12111;DHT22;6119;52.372;8.990;2023-04-28T00:03:10;10.00;92.10
12111;DHT22;6119;52.372;8.990;2023-04-28T00:05:57;10.00;92.30
12111;DHT22;6119;52.372;8.990;2023-04-28T00:08:44;10.00;92.30
12111;DHT22;6119;52.372;8.990;2023-04-28T00:11:31;9.90;93.00
12111;DHT22;6119;52.372;8.990;2023-04-28T00:14:17;9.90;93.10
12111;DHT22;6119;52.372;8.990;2023-04-28T00:17:04;10.00;92.50
12111;DHT22;6119;52.372;8.990;2023-04-28T00:19:52;10.00;92.40
12111;DHT22;6119;52.372;8.990;2023-04-28T00:22:39;10.00;92.30
12111;DHT22;6119;52.372;8.990;2023-04-28T00:25:26;10.00;92.30
12111;DHT22;6119;52.372;8.990;2023-04-28T00:28:13;9.90;92.70
12111;DHT22;6119;52.372;8.990;2023-04-28T00:31:17;9.90;93.10
12111;DHT22;6119;52.372;8.990;2023-04-28T00:34:03;10.00;92.50
12111;DHT22;6119;52.372;8.990;2023-04-28T00:36:51;9.90;93.10
12111;DHT22;6119;52.372;8.990;2023-04-28T00:39:38;9.90;93.20
12111;DHT22;6119;52.372;8.990;2023-04-28T00:42:26;9.90;93.50
12111;DHT22;6119;52.372;8.990;2023-04-28T00:45:12;10.00;93.10
12111;DHT22;6119;52.372;8.990;2023-04-28T00:47:59;9.90;94.00
12111;DHT22;6119;52.372;8.990;2023-04-28T00:50:47;9.90;94.00
12111;DHT22;6119;52.372;8.990;2023-04-28T00:53:35;9.90;94.00
12111;DHT22;6119;52.372;8.990;2023-04-28T00:56:23;9.90;94.30
12111;DHT22;6119;52.372;8.990;2023-04-28T00:59:11;9.90;94.50
12111;DHT22;6119;52.372;8.990;2023-04-28T01:01:59;9.90;94.50
12111;DHT22;6119;52.372;8.990;2023-04-28T01:04:46;9.80;94.40
12111;DHT22;6119;52.372;8.990;2023-04-28T01:07:33;9.80;94.60
12111;DHT22;6119;52.372;8.990;2023-04-28T01:10:21;9.80;94.50
12111;DHT22;6119;52.372;8.990;2023-04-28T01:13:08;9.80;94.50
12111;DHT22;6119;52.372;8.990;2023-04-28T01:15:54;9.80;94.40
12111;DHT22;6119;52.372;8.990;2023-04-28T01:18:44;9.80;94.40
12111;DHT22;6119;52.372;8.990;2023-04-28T01:21:33;9.80;94.40
12111;DHT22;6119;52.372;8.990;2023-04-28T01:24:21;9.80;94.40
12111;DHT22;6119;52.372;8.990;2023-04-28T01:27:07;9.80;94.40
12111;DHT22;6119;52.372;8.990;2023-04-28T01:29:53;9.80;94.40
12111;DHT22;6119;52.372;8.990;2023-04-28T01:32:41;9.90;94.50
12111;DHT22;6119;52.372;8.990;2023-04-28T01:35:28;9.90;94.50
12111;DHT22;6119;52.372;8.990;2023-04-28T01:38:14;9.80;94.70
12111;DHT22;6119;52.372;8.990;2023-04-28T01:41:02;9.90;94.50
12111;DHT22;6119;52.372;8.990;2023-04-28T01:43:48;9.80;94.40
12111;DHT22;6119;52.372;8.990;2023-04-28T01:46:35;9.80;94.70
12111;DHT22;6119;52.372;8.990;2023-04-28T01:49:22;9.80;94.50
12111;DHT22;6119;52.372;8.990;2023-04-28T01:52:08;9.80;94.60
12111;DHT22;6119;52.372;8.990;2023-04-28T01:54:56;9.80;94.40
12111;DHT22;6119;52.372;8.990;2023-04-28T01:57:43;9.80;94.70
12111;DHT22;6119;52.372;8.990;2023-04-28T02:00:30;9.90;94.50
12111;DHT22;6119;52.372;8.990;2023-04-28T02:03:16;9.80;94.50
12111;DHT22;6119;52.372;8.990;2023-04-28T02:06:03;9.80;94.70
12111;DHT22;6119;52.372;8.990;2023-04-28T02:08:50;9.80;94.60
12111;DHT22;6119;52.372;8.990;2023-04-28T02:11:36;9.80;94.70
12111;DHT22;6119;52.372;8.990;2023-04-28T02:14:24;9.80;94.70
12111;DHT22;6119;52.372;8.990;2023-04-28T02:17:11;9.80;94.70
12111;DHT22;6119;52.372;8.990;2023-04-28T02:19:57;9.80;94.70
12111;DHT22;6119;52.372;8.990;2023-04-28T02:22:44;9.80;94.60
12111;DHT22;6119;52.372;8.990;2023-04-28T02:25:30;9.80;94.80
12111;DHT22;6119;52.372;8.990;2023-04-28T02:28:17;9.80;94.80
12111;DHT22;6119;52.372;8.990;2023-04-28T02:31:06;9.80;94.60
12111;DHT22;6119;52.372;8.990;2023-04-28T02:33:52;9.70;95.10
12111;DHT22;6119;52.372;8.990;2023-04-28T02:36:39;9.70;95.00
12111;DHT22;6119;52.372;8.990;2023-04-28T02:39:25;9.70;95.10
12111;DHT22;6119;52.372;8.990;2023-04-28T02:42:14;9.70;95.10
12111;DHT22;6119;52.372;8.990;2023-04-28T02:45:01;9.80;95.20
12111;DHT22;6119;52.372;8.990;2023-04-28T02:47:49;9.70;95.30
12111;DHT22;6119;52.372;8.990;2023-04-28T02:50:36;9.70;95.40
12111;DHT22;6119;52.372;8.990;2023-04-28T02:53:23;9.60;95.40
12111;DHT22;6119;52.372;8.990;2023-04-28T02:56:09;9.70;95.40
12111;DHT22;6119;52.372;8.990;2023-04-28T02:58:56;9.60;95.60
12111;DHT22;6119;52.372;8.990;2023-04-28T03:01:42;9.60;95.30
12111;DHT22;6119;52.372;8.990;2023-04-28T03:04:30;9.60;95.60
12111;DHT22;6119;52.372;8.990;2023-04-28T03:07:17;9.60;95.80
12111;DHT22;6119;52.372;8.990;2023-04-28T03:10:04;9.50;95.80
12111;DHT22;6119;52.372;8.990;2023-04-28T03:12:50;9.60;96.20
12111;DHT22;6119;52.372;8.990;2023-04-28T03:15:37;9.50;96.20
12111;DHT22;6119;52.372;8.990;2023-04-28T03:18:23;9.50;96.50
12111;DHT22;6119;52.372;8.990;2023-04-28T03:21:11;9.50;96.50
12111;DHT22;6119;52.372;8.990;2023-04-28T03:23:58;9.40;96.60
12111;DHT22;6119;52.372;8.990;2023-04-28T03:26:45;9.30;96.80
12111;DHT22;6119;52.372;8.990;2023-04-28T03:29:31;9.40;96.80
12111;DHT22;6119;52.372;8.990;2023-04-28T03:32:18;9.40;96.60
12111;DHT22;6119;52.372;8.990;2023-04-28T03:35:05;9.40;96.90
12111;DHT22;6119;52.372;8.990;2023-04-28T03:37:53;9.40;96.90
12111;DHT22;6119;52.372;8.990;2023-04-28T03:40:39;9.30;96.70
12111;DHT22;6119;52.372;8.990;2023-04-28T03:43:26;9.40;96.90
12111;DHT22;6119;52.372;8.990;2023-04-28T03:46:12;9.40;97.00
12111;DHT22;6119;52.372;8.990;2023-04-28T03:48:59;9.30;97.40
12111;DHT22;6119;52.372;8.990;2023-04-28T03:51:46;9.30;96.90
12111;DHT22;6119;52.372;8.990;2023-04-28T03:54:36;9.30;97.00
12111;DHT22;6119;52.372;8.990;2023-04-28T03:57:23;9.30;97.00
12111;DHT22;6119;52.372;8.990;2023-04-28T04:00:10;9.30;97.20
12111;DHT22;6119;52.372;8.990;2023-04-28T04:02:57;9.30;97.40
12111;DHT22;6119;52.372;8.990;2023-04-28T04:05:44;9.30;97.00
12111;DHT22;6119;52.372;8.990;2023-04-28T04:08:32;9.30;97.20
12111;DHT22;6119;52.372;8.990;2023-04-28T04:11:20;9.90;97.40
12111;DHT22;6119;52.372;8.990;2023-04-28T04:14:06;9.30;97.20
12111;DHT22;6119;52.372;8.990;2023-04-28T04:16:53;9.30;97.50
12111;DHT22;6119;52.372;8.990;2023-04-28T04:19:39;9.30;97.30
12111;DHT22;6119;52.372;8.990;2023-04-28T04:22:26;9.30;97.40
12111;DHT22;6119;52.372;8.990;2023-04-28T04:25:13;9.30;97.40
12111;DHT22;6119;52.372;8.990;2023-04-28T04:28:01;9.30;97.50
12111;DHT22;6119;52.372;8.990;2023-04-28T04:30:48;9.30;97.60
12111;DHT22;6119;52.372;8.990;2023-04-28T04:33:34;9.30;97.60
12111;DHT22;6119;52.372;8.990;2023-04-28T04:36:22;9.30;97.60
12111;DHT22;6119;52.372;8.990;2023-04-28T04:39:08;9.30;97.60
12111;DHT22;6119;52.372;8.990;2023-04-28T04:41:55;9.40;97.60
12111;DHT22;6119;52.372;8.990;2023-04-28T04:44:43;9.40;97.80
12111;DHT22;6119;52.372;8.990;2023-04-28T04:47:30;9.40;97.80
12111;DHT22;6119;52.372;8.990;2023-04-28T04:50:16;9.40;97.80
12111;DHT22;6119;52.372;8.990;2023-04-28T04:53:03;9.40;97.80
12111;DHT22;6119;52.372;8.990;2023-04-28T04:55:50;9.50;97.90
12111;DHT22;6119;52.372;8.990;2023-04-28T04:58:36;9.50;97.90
12111;DHT22;6119;52.372;8.990;2023-04-28T05:01:24;9.40;98.20
12111;DHT22;6119;52.372;8.990;2023-04-28T05:04:11;9.50;97.90
12111;DHT22;6119;52.372;8.990;2023-04-28T05:06:58;9.50;98.10
12111;DHT22;6119;52.372;8.990;2023-04-28T05:09:44;9.60;98.00
12111;DHT22;6119;52.372;8.990;2023-04-28T05:12:31;9.60;98.20
12111;DHT22;6119;52.372;8.990;2023-04-28T05:15:18;9.60;98.00
12111;DHT22;6119;52.372;8.990;2023-04-28T05:18:05;9.70;98.20
12111;DHT22;6119;52.372;8.990;2023-04-28T05:20:55;9.80;98.00
12111;DHT22;6119;52.372;8.990;2023-04-28T05:23:42;9.80;98.00
12111;DHT22;6119;52.372;8.990;2023-04-28T05:26:28;9.80;98.10
12111;DHT22;6119;52.372;8.990;2023-04-28T05:29:15;9.80;98.10
12111;DHT22;6119;52.372;8.990;2023-04-28T05:32:01;9.90;98.10
12111;DHT22;6119;52.372;8.990;2023-04-28T05:34:49;10.00;97.90
12111;DHT22;6119;52.372;8.990;2023-04-28T05:37:36;10.00;97.80
12111;DHT22;6119;52.372;8.990;2023-04-28T05:40:22;10.10;97.60
12111;DHT22;6119;52.372;8.990;2023-04-28T05:43:09;10.10;97.50
12111;DHT22;6119;52.372;8.990;2023-04-28T05:45:55;10.20;97.70
12111;DHT22;6119;52.372;8.990;2023-04-28T05:48:42;10.30;97.70
12111;DHT22;6119;52.372;8.990;2023-04-28T05:51:30;10.30;97.40
12111;DHT22;6119;52.372;8.990;2023-04-28T05:54:17;10.40;97.80
12111;DHT22;6119;52.372;8.990;2023-04-28T05:57:04;10.40;97.80
12111;DHT22;6119;52.372;8.990;2023-04-28T05:59:50;10.50;97.50
12111;DHT22;6119;52.372;8.990;2023-04-28T06:02:37;10.60;97.50
12111;DHT22;6119;52.372;8.990;2023-04-28T06:05:24;10.60;97.40
12111;DHT22;6119;52.372;8.990;2023-04-28T06:08:13;10.70;97.40
12111;DHT22;6119;52.372;8.990;2023-04-28T06:11:00;10.80;97.10
12111;DHT22;6119;52.372;8.990;2023-04-28T06:13:46;10.80;97.10
12111;DHT22;6119;52.372;8.990;2023-04-28T06:16:32;10.90;97.20
12111;DHT22;6119;52.372;8.990;2023-04-28T06:19:19;11.00;96.80
12111;DHT22;6119;52.372;8.990;2023-04-28T06:22:06;11.00;97.20
12111;DHT22;6119;52.372;8.990;2023-04-28T06:24:53;11.10;96.70
12111;DHT22;6119;52.372;8.990;2023-04-28T06:27:40;11.10;96.90
12111;DHT22;6119;52.372;8.990;2023-04-28T06:30:26;11.20;96.80
12111;DHT22;6119;52.372;8.990;2023-04-28T06:33:13;11.20;97.20
12111;DHT22;6119;52.372;8.990;2023-04-28T06:35:59;11.30;97.00
12111;DHT22;6119;52.372;8.990;2023-04-28T06:38:46;11.30;96.50
12111;DHT22;6119;52.372;8.990;2023-04-28T06:41:34;11.40;96.80
12111;DHT22;6119;52.372;8.990;2023-04-28T06:44:20;11.40;96.80
12111;DHT22;6119;52.372;8.990;2023-04-28T06:47:07;11.50;97.00
12111;DHT22;6119;52.372;8.990;2023-04-28T06:49:54;11.40;97.00
12111;DHT22;6119;52.372;8.990;2023-04-28T06:52:41;11.40;97.00
12111;DHT22;6119;52.372;8.990;2023-04-28T06:55:28;11.50;97.20
12111;DHT22;6119;52.372;8.990;2023-04-28T06:58:16;11.60;97.10
12111;DHT22;6119;52.372;8.990;2023-04-28T07:01:03;12.00;97.30
12111;DHT22;6119;52.372;8.990;2023-04-28T07:03:49;11.70;97.10
12111;DHT22;6119;52.372;8.990;2023-04-28T07:06:36;11.70;96.70
12111;DHT22;6119;52.372;8.990;2023-04-28T07:09:23;11.70;97.00
12111;DHT22;6119;52.372;8.990;2023-04-28T07:12:11;11.70;97.30
12111;DHT22;6119;52.372;8.990;2023-04-28T07:14:59;11.80;97.40
12111;DHT22;6119;52.372;8.990;2023-04-28T07:17:46;11.90;97.20
12111;DHT22;6119;52.372;8.990;2023-04-28T07:20:33;12.00;97.40
12111;DHT22;6119;52.372;8.990;2023-04-28T07:23:19;12.10;97.80
12111;DHT22;6119;52.372;8.990;2023-04-28T07:26:06;12.20;97.50
12111;DHT22;6119;52.372;8.990;2023-04-28T07:28:52;12.30;97.60
12111;DHT22;6119;52.372;8.990;2023-04-28T07:31:40;12.30;97.20
12111;DHT22;6119;52.372;8.990;2023-04-28T07:34:27;12.50;97.30
12111;DHT22;6119;52.372;8.990;2023-04-28T07:37:13;12.50;96.90
12111;DHT22;6119;52.372;8.990;2023-04-28T07:40:00;12.60;97.20
12111;DHT22;6119;52.372;8.990;2023-04-28T07:42:47;12.70;97.00
12111;DHT22;6119;52.372;8.990;2023-04-28T07:48:24;12.80;97.40
12111;DHT22;6119;52.372;8.990;2023-04-28T07:51:11;12.90;97.80
12111;DHT22;6119;52.372;8.990;2023-04-28T07:53:58;13.00;97.20
12111;DHT22;6119;52.372;8.990;2023-04-28T07:56:44;13.10;97.10
12111;DHT22;6119;52.372;8.990;2023-04-28T07:59:31;13.20;97.20
12111;DHT22;6119;52.372;8.990;2023-04-28T08:02:18;13.20;97.20
12111;DHT22;6119;52.372;8.990;2023-04-28T08:05:07;13.30;96.90
12111;DHT22;6119;52.372;8.990;2023-04-28T08:07:55;13.40;96.90
12111;DHT22;6119;52.372;8.990;2023-04-28T08:10:41;13.30;96.50
12111;DHT22;6119;52.372;8.990;2023-04-28T08:13:28;13.40;96.50
12111;DHT22;6119;52.372;8.990;2023-04-28T08:16:14;13.40;97.10
12111;DHT22;6119;52.372;8.990;2023-04-28T08:19:02;13.50;97.00
12111;DHT22;6119;52.372;8.990;2023-04-28T08:21:51;13.50;96.90
12111;DHT22;6119;52.372;8.990;2023-04-28T08:24:37;13.50;96.50
12111;DHT22;6119;52.372;8.990;2023-04-28T08:27:23;13.50;96.80
12111;DHT22;6119;52.372;8.990;2023-04-28T08:30:10;14.10;97.40
12111;DHT22;6119;52.372;8.990;2023-04-28T08:32:57;13.70;96.90
12111;DHT22;6119;52.372;8.990;2023-04-28T08:35:44;13.70;97.30
12111;DHT22;6119;52.372;8.990;2023-04-28T08:38:31;13.70;97.00
12111;DHT22;6119;52.372;8.990;2023-04-28T08:41:18;13.70;97.20
12111;DHT22;6119;52.372;8.990;2023-04-28T08:44:07;13.70;97.30
12111;DHT22;6119;52.372;8.990;2023-04-28T08:46:55;13.70;97.30
12111;DHT22;6119;52.372;8.990;2023-04-28T08:49:45;13.60;97.20
12111;DHT22;6119;52.372;8.990;2023-04-28T08:52:32;13.60;97.30
12111;DHT22;6119;52.372;8.990;2023-04-28T08:55:20;13.60;97.30
12111;DHT22;6119;52.372;8.990;2023-04-28T08:58:08;13.70;97.10
12111;DHT22;6119;52.372;8.990;2023-04-28T09:00:55;13.70;96.70
12111;DHT22;6119;52.372;8.990;2023-04-28T09:03:41;13.70;96.70
12111;DHT22;6119;52.372;8.990;2023-04-28T09:06:31;13.70;96.60
12111;DHT22;6119;52.372;8.990;2023-04-28T09:09:22;13.70;96.80
12111;DHT22;6119;52.372;8.990;2023-04-28T09:12:11;13.70;96.90
12111;DHT22;6119;52.372;8.990;2023-04-28T09:14:57;13.70;97.00
12111;DHT22;6119;52.372;8.990;2023-04-28T09:17:51;13.70;97.20
12111;DHT22;6119;52.372;8.990;2023-04-28T09:20:38;13.70;97.10
12111;DHT22;6119;52.372;8.990;2023-04-28T09:23:24;13.70;97.60
12111;DHT22;6119;52.372;8.990;2023-04-28T09:26:11;13.80;97.50
12111;DHT22;6119;52.372;8.990;2023-04-28T09:29:12;13.80;97.20
12111;DHT22;6119;52.372;8.990;2023-04-28T09:32:12;13.80;97.50
12111;DHT22;6119;52.372;8.990;2023-04-28T09:35:00;13.80;97.80
12111;DHT22;6119;52.372;8.990;2023-04-28T09:37:57;13.80;97.80
12111;DHT22;6119;52.372;8.990;2023-04-28T09:40:52;13.80;97.60
12111;DHT22;6119;52.372;8.990;2023-04-28T09:43:39;13.90;98.20
12111;DHT22;6119;52.372;8.990;2023-04-28T09:46:28;14.00;98.40
12111;DHT22;6119;52.372;8.990;2023-04-28T09:49:15;14.00;98.70
12111;DHT22;6119;52.372;8.990;2023-04-28T09:52:11;14.10;97.90
12111;DHT22;6119;52.372;8.990;2023-04-28T09:55:00;14.20;98.70
12111;DHT22;6119;52.372;8.990;2023-04-28T09:57:48;14.30;99.30
12111;DHT22;6119;52.372;8.990;2023-04-28T10:00:38;14.30;99.90
12111;DHT22;6119;52.372;8.990;2023-04-28T10:03:28;14.40;99.90
12111;DHT22;6119;52.372;8.990;2023-04-28T10:06:15;14.50;99.90
12111;DHT22;6119;52.372;8.990;2023-04-28T10:09:02;14.40;99.90
12111;DHT22;6119;52.372;8.990;2023-04-28T10:11:49;14.70;99.90
12111;DHT22;6119;52.372;8.990;2023-04-28T10:14:36;14.80;99.90
12111;DHT22;6119;52.372;8.990;2023-04-28T10:17:23;14.70;99.90
12111;DHT22;6119;52.372;8.990;2023-04-28T10:20:15;14.80;99.90
12111;DHT22;6119;52.372;8.990;2023-04-28T10:23:28;14.90;99.90
12111;DHT22;6119;52.372;8.990;2023-04-28T10:26:17;15.10;99.90
12111;DHT22;6119;52.372;8.990;2023-04-28T10:29:05;15.20;99.90
12111;DHT22;6119;52.372;8.990;2023-04-28T10:32:18;15.30;99.90
12111;DHT22;6119;52.372;8.990;2023-04-28T10:35:41;15.60;99.90
12111;DHT22;6119;52.372;8.990;2023-04-28T10:38:28;15.70;99.90
12111;DHT22;6119;52.372;8.990;2023-04-28T10:41:32;15.70;99.90
12111;DHT22;6119;52.372;8.990;2023-04-28T10:44:43;15.70;99.30
12111;DHT22;6119;52.372;8.990;2023-04-28T10:48:01;15.50;99.50
12111;DHT22;6119;52.372;8.990;2023-04-28T10:51:20;15.30;98.70
12111;DHT22;6119;52.372;8.990;2023-04-28T10:54:13;15.20;98.30
12111;DHT22;6119;52.372;8.990;2023-04-28T10:57:17;15.20;99.30
12111;DHT22;6119;52.372;8.990;2023-04-28T11:00:26;15.30;99.60
12111;DHT22;6119;52.372;8.990;2023-04-28T11:03:38;15.30;99.90
12111;DHT22;6119;52.372;8.990;2023-04-28T11:06:31;15.30;99.90
12111;DHT22;6119;52.372;8.990;2023-04-28T11:09:46;15.30;99.90
12111;DHT22;6119;52.372;8.990;2023-04-28T11:12:34;15.40;99.90
12111;DHT22;6119;52.372;8.990;2023-04-28T11:15:20;15.30;99.90
12111;DHT22;6119;52.372;8.990;2023-04-28T11:18:10;15.30;99.90
12111;DHT22;6119;52.372;8.990;2023-04-28T11:21:01;15.20;99.90
12111;DHT22;6119;52.372;8.990;2023-04-28T11:23:49;15.10;99.90
12111;DHT22;6119;52.372;8.990;2023-04-28T11:26:37;15.00;99.90
12111;DHT22;6119;52.372;8.990;2023-04-28T11:29:30;14.90;99.90
12111;DHT22;6119;52.372;8.990;2023-04-28T11:32:25;15.00;99.90
12111;DHT22;6119;52.372;8.990;2023-04-28T11:35:12;15.00;99.90
12111;DHT22;6119;52.372;8.990;2023-04-28T11:38:02;15.10;99.90
12111;DHT22;6119;52.372;8.990;2023-04-28T11:40:57;15.10;99.90
12111;DHT22;6119;52.372;8.990;2023-04-28T11:43:44;15.10;99.90
12111;DHT22;6119;52.372;8.990;2023-04-28T11:46:32;15.10;99.90
12111;DHT22;6119;52.372;8.990;2023-04-28T11:49:19;15.10;99.90
12111;DHT22;6119;52.372;8.990;2023-04-28T11:52:08;15.00;99.90
12111;DHT22;6119;52.372;8.990;2023-04-28T11:54:55;15.00;99.90
12111;DHT22;6119;52.372;8.990;2023-04-28T11:57:46;15.00;99.90
12111;DHT22;6119;52.372;8.990;2023-04-28T12:00:32;14.90;99.90
12111;DHT22;6119;52.372;8.990;2023-04-28T12:03:19;14.90;99.90
12111;DHT22;6119;52.372;8.990;2023-04-28T12:06:06;15.00;99.90
12111;DHT22;6119;52.372;8.990;2023-04-28T12:08:53;15.00;99.90
12111;DHT22;6119;52.372;8.990;2023-04-28T12:11:51;15.10;99.90
12111;DHT22;6119;52.372;8.990;2023-04-28T12:15:04;15.20;99.90
12111;DHT22;6119;52.372;8.990;2023-04-28T12:17:51;15.30;99.90
12111;DHT22;6119;52.372;8.990;2023-04-28T12:20:38;15.40;99.90
12111;DHT22;6119;52.372;8.990;2023-04-28T12:23:29;15.60;99.90
12111;DHT22;6119;52.372;8.990;2023-04-28T12:26:23;15.70;99.90
12111;DHT22;6119;52.372;8.990;2023-04-28T12:29:35;15.80;99.90
12111;DHT22;6119;52.372;8.990;2023-04-28T12:32:38;16.00;99.90
12111;DHT22;6119;52.372;8.990;2023-04-28T12:35:26;16.30;99.90
12111;DHT22;6119;52.372;8.990;2023-04-28T12:38:14;16.40;99.90
12111;DHT22;6119;52.372;8.990;2023-04-28T12:41:01;16.50;99.90
12111;DHT22;6119;52.372;8.990;2023-04-28T12:43:47;16.70;99.90
12111;DHT22;6119;52.372;8.990;2023-04-28T12:46:33;16.90;99.90
12111;DHT22;6119;52.372;8.990;2023-04-28T12:49:23;17.10;99.90
12111;DHT22;6119;52.372;8.990;2023-04-28T12:52:09;17.20;99.90
12111;DHT22;6119;52.372;8.990;2023-04-28T12:54:56;17.10;99.90
12111;DHT22;6119;52.372;8.990;2023-04-28T12:57:42;17.10;99.90
12111;DHT22;6119;52.372;8.990;2023-04-28T13:00:29;17.20;99.90
12111;DHT22;6119;52.372;8.990;2023-04-28T13:03:16;17.60;99.90
12111;DHT22;6119;52.372;8.990;2023-04-28T13:06:05;17.50;99.90
12111;DHT22;6119;52.372;8.990;2023-04-28T13:08:52;18.00;99.90
12111;DHT22;6119;52.372;8.990;2023-04-28T13:11:39;18.10;99.70
12111;DHT22;6119;52.372;8.990;2023-04-28T13:14:26;18.00;99.60
12111;DHT22;6119;52.372;8.990;2023-04-28T13:17:13;17.80;99.40
12111;DHT22;6119;52.372;8.990;2023-04-28T13:20:00;17.80;99.90
12111;DHT22;6119;52.372;8.990;2023-04-28T13:22:49;18.00;99.90
12111;DHT22;6119;52.372;8.990;2023-04-28T13:25:36;18.10;99.90
12111;DHT22;6119;52.372;8.990;2023-04-28T13:28:23;17.90;99.90
12111;DHT22;6119;52.372;8.990;2023-04-28T13:31:09;17.90;99.90
12111;DHT22;6119;52.372;8.990;2023-04-28T13:33:56;17.70;99.90
12111;DHT22;6119;52.372;8.990;2023-04-28T13:36:46;17.80;99.90
12111;DHT22;6119;52.372;8.990;2023-04-28T13:39:36;17.50;99.90
12111;DHT22;6119;52.372;8.990;2023-04-28T13:42:23;17.40;99.90
12111;DHT22;6119;52.372;8.990;2023-04-28T13:45:10;17.40;99.90
12111;DHT22;6119;52.372;8.990;2023-04-28T13:47:59;17.50;99.90
12111;DHT22;6119;52.372;8.990;2023-04-28T13:50:45;17.50;99.90
12111;DHT22;6119;52.372;8.990;2023-04-28T13:53:33;17.40;99.90
12111;DHT22;6119;52.372;8.990;2023-04-28T13:56:21;17.50;99.90
12111;DHT22;6119;52.372;8.990;2023-04-28T13:59:08;17.40;99.90
12111;DHT22;6119;52.372;8.990;2023-04-28T14:01:55;17.40;99.90
12111;DHT22;6119;52.372;8.990;2023-04-28T14:04:41;17.30;99.90
12111;DHT22;6119;52.372;8.990;2023-04-28T14:07:33;17.20;99.90
12111;DHT22;6119;52.372;8.990;2023-04-28T14:10:19;17.20;99.90
12111;DHT22;6119;52.372;8.990;2023-04-28T14:13:08;17.10;99.90
12111;DHT22;6119;52.372;8.990;2023-04-28T14:15:55;17.10;99.90
12111;DHT22;6119;52.372;8.990;2023-04-28T14:18:44;17.10;99.90
12111;DHT22;6119;52.372;8.990;2023-04-28T14:21:30;17.00;99.90
12111;DHT22;6119;52.372;8.990;2023-04-28T14:24:17;17.20;99.90
12111;DHT22;6119;52.372;8.990;2023-04-28T14:27:04;17.40;99.90
12111;DHT22;6119;52.372;8.990;2023-04-28T14:29:52;17.50;99.90
12111;DHT22;6119;52.372;8.990;2023-04-28T14:32:39;17.40;99.90
12111;DHT22;6119;52.372;8.990;2023-04-28T14:35:26;17.50;99.90
12111;DHT22;6119;52.372;8.990;2023-04-28T14:38:14;17.40;99.90
12111;DHT22;6119;52.372;8.990;2023-04-28T14:41:01;17.40;99.90
12111;DHT22;6119;52.372;8.990;2023-04-28T14:43:48;17.30;99.90
12111;DHT22;6119;52.372;8.990;2023-04-28T14:46:36;17.10;99.90
12111;DHT22;6119;52.372;8.990;2023-04-28T14:49:23;16.90;99.90
12111;DHT22;6119;52.372;8.990;2023-04-28T14:52:12;17.00;99.90
12111;DHT22;6119;52.372;8.990;2023-04-28T14:54:59;17.10;99.90
12111;DHT22;6119;52.372;8.990;2023-04-28T14:57:46;17.00;99.90
12111;DHT22;6119;52.372;8.990;2023-04-28T15:00:34;17.00;99.90
12111;DHT22;6119;52.372;8.990;2023-04-28T15:03:22;16.90;99.90
12111;DHT22;6119;52.372;8.990;2023-04-28T15:06:09;16.90;99.90
12111;DHT22;6119;52.372;8.990;2023-04-28T15:08:56;16.90;99.90
12111;DHT22;6119;52.372;8.990;2023-04-28T15:11:42;16.80;99.90
12111;DHT22;6119;52.372;8.990;2023-04-28T15:14:29;16.60;99.90
12111;DHT22;6119;52.372;8.990;2023-04-28T15:17:16;16.70;99.90
12111;DHT22;6119;52.372;8.990;2023-04-28T15:20:06;16.70;99.90
12111;DHT22;6119;52.372;8.990;2023-04-28T15:22:53;16.60;99.90
12111;DHT22;6119;52.372;8.990;2023-04-28T15:25:39;16.50;99.90
12111;DHT22;6119;52.372;8.990;2023-04-28T15:28:26;16.40;99.90
12111;DHT22;6119;52.372;8.990;2023-04-28T15:31:12;16.50;99.90
12111;DHT22;6119;52.372;8.990;2023-04-28T15:33:59;16.40;99.90
12111;DHT22;6119;52.372;8.990;2023-04-28T15:36:47;16.40;99.90
12111;DHT22;6119;52.372;8.990;2023-04-28T15:39:34;16.40;99.90
12111;DHT22;6119;52.372;8.990;2023-04-28T15:42:21;16.30;99.90
12111;DHT22;6119;52.372;8.990;2023-04-28T15:45:10;16.20;99.90
12111;DHT22;6119;52.372;8.990;2023-04-28T15:47:57;16.20;99.90
12111;DHT22;6119;52.372;8.990;2023-04-28T15:50:44;16.20;99.90
12111;DHT22;6119;52.372;8.990;2023-04-28T15:53:32;16.20;99.90
12111;DHT22;6119;52.372;8.990;2023-04-28T15:56:19;16.20;99.90
12111;DHT22;6119;52.372;8.990;2023-04-28T15:59:07;16.10;99.90
12111;DHT22;6119;52.372;8.990;2023-04-28T16:01:58;16.20;99.90
12111;DHT22;6119;52.372;8.990;2023-04-28T16:04:45;16.10;99.90
12111;DHT22;6119;52.372;8.990;2023-04-28T16:07:33;16.10;99.90
12111;DHT22;6119;52.372;8.990;2023-04-28T16:10:26;16.10;99.90
12111;DHT22;6119;52.372;8.990;2023-04-28T16:13:13;16.10;99.90
12111;DHT22;6119;52.372;8.990;2023-04-28T16:15:59;16.20;99.90
12111;DHT22;6119;52.372;8.990;2023-04-28T16:18:46;16.20;99.90
12111;DHT22;6119;52.372;8.990;2023-04-28T16:21:33;16.20;99.90
12111;DHT22;6119;52.372;8.990;2023-04-28T16:24:20;16.20;99.90
12111;DHT22;6119;52.372;8.990;2023-04-28T16:27:09;16.20;99.90
12111;DHT22;6119;52.372;8.990;2023-04-28T16:29:57;16.20;99.90
12111;DHT22;6119;52.372;8.990;2023-04-28T16:32:43;16.10;99.90
12111;DHT22;6119;52.372;8.990;2023-04-28T16:35:30;16.10;99.90
12111;DHT22;6119;52.372;8.990;2023-04-28T16:38:16;16.10;99.90
12111;DHT22;6119;52.372;8.990;2023-04-28T16:41:03;16.10;99.90
12111;DHT22;6119;52.372;8.990;2023-04-28T16:43:51;16.10;99.90
12111;DHT22;6119;52.372;8.990;2023-04-28T16:46:38;16.20;99.90
12111;DHT22;6119;52.372;8.990;2023-04-28T16:49:24;16.20;99.90
12111;DHT22;6119;52.372;8.990;2023-04-28T16:52:11;16.10;99.90
12111;DHT22;6119;52.372;8.990;2023-04-28T16:54:58;16.10;99.90
12111;DHT22;6119;52.372;8.990;2023-04-28T16:57:45;16.20;99.90
12111;DHT22;6119;52.372;8.990;2023-04-28T17:00:32;16.10;99.90
12111;DHT22;6119;52.372;8.990;2023-04-28T17:03:19;16.10;99.90
12111;DHT22;6119;52.372;8.990;2023-04-28T17:06:06;16.10;99.90
12111;DHT22;6119;52.372;8.990;2023-04-28T17:08:53;16.10;99.90
12111;DHT22;6119;52.372;8.990;2023-04-28T17:11:39;16.10;99.90
12111;DHT22;6119;52.372;8.990;2023-04-28T17:14:26;16.10;99.90
12111;DHT22;6119;52.372;8.990;2023-04-28T17:17:14;16.10;99.90
12111;DHT22;6119;52.372;8.990;2023-04-28T17:20:03;16.10;99.90
12111;DHT22;6119;52.372;8.990;2023-04-28T17:22:50;16.10;99.90
12111;DHT22;6119;52.372;8.990;2023-04-28T17:25:37;16.10;99.90
12111;DHT22;6119;52.372;8.990;2023-04-28T17:28:24;16.10;99.90
12111;DHT22;6119;52.372;8.990;2023-04-28T17:31:12;16.00;99.90
12111;DHT22;6119;52.372;8.990;2023-04-28T17:34:00;16.00;99.90
12111;DHT22;6119;52.372;8.990;2023-04-28T17:36:47;16.00;99.90
12111;DHT22;6119;52.372;8.990;2023-04-28T17:39:34;16.00;99.90
12111;DHT22;6119;52.372;8.990;2023-04-28T17:42:20;16.00;99.90
12111;DHT22;6119;52.372;8.990;2023-04-28T17:45:08;16.00;99.90
12111;DHT22;6119;52.372;8.990;2023-04-28T17:47:55;15.90;99.90
12111;DHT22;6119;52.372;8.990;2023-04-28T17:50:46;15.90;99.90
12111;DHT22;6119;52.372;8.990;2023-04-28T17:53:32;15.90;99.90
12111;DHT22;6119;52.372;8.990;2023-04-28T17:56:19;15.90;99.90
12111;DHT22;6119;52.372;8.990;2023-04-28T17:59:05;15.90;99.90
12111;DHT22;6119;52.372;8.990;2023-04-28T18:01:53;15.90;99.90
12111;DHT22;6119;52.372;8.990;2023-04-28T18:04:41;15.80;99.90
12111;DHT22;6119;52.372;8.990;2023-04-28T18:07:29;15.90;99.90